createdAt,value
2022-11-12T00:02:19.091Z,35.95
2022-11-12T00:06:39.500Z,81.68
2022-11-12T00:11:00.104Z,64.15
2022-11-12T00:15:20.996Z,98.88
2022-11-12T00:19:40.911Z,55.72
2022-11-12T00:24:01.503Z,73.82
2022-11-12T00:28:22.910Z,51.17
2022-11-12T00:32:43.219Z,58.22
2022-11-12T00:37:03.879Z,50.63
2022-11-12T00:41:24.586Z,53.85
2022-11-12T00:45:45.139Z,71.50
2022-11-12T00:50:06.245Z,70.25
2022-11-12T00:54:26.714Z,48.92
2022-11-12T00:58:47.207Z,55.92
2022-11-12T01:03:07.320Z,49.78
2022-11-12T01:07:28.129Z,55.00
2022-11-12T01:11:48.979Z,46.08
2022-11-12T01:16:15.389Z,50.22
2022-11-12T01:20:38.823Z,83.55
2022-11-12T01:24:59.219Z,72.38
2022-11-12T01:29:19.246Z,78.40
2022-11-12T01:33:41.485Z,55.17
2022-11-12T01:38:01.854Z,68.13
2022-11-12T01:42:25.502Z,76.05
2022-11-12T01:47:07.081Z,64.30
2022-11-12T01:51:34.267Z,53.25
2022-11-12T01:55:56.682Z,44.22
2022-11-12T02:00:17.710Z,46.97
2022-11-12T02:04:40.739Z,91.28
2022-11-12T02:09:01.428Z,130.10
2022-11-12T02:13:40.875Z,109.90
2022-11-12T02:18:02.045Z,128.00
2022-11-12T02:22:22.465Z,99.35
2022-11-12T02:26:48.855Z,79.15
2022-11-12T02:31:09.606Z,80.95
2022-11-12T02:35:30.742Z,71.47
2022-11-12T02:39:50.717Z,46.33
2022-11-12T02:44:11.111Z,36.85
2022-11-12T02:48:31.352Z,43.33
2022-11-12T02:52:51.737Z,40.25
2022-11-12T02:57:11.834Z,46.50
2022-11-12T03:01:32.524Z,40.28
2022-11-12T03:05:59.922Z,44.28
2022-11-12T03:10:20.227Z,45.30
2022-11-12T03:14:40.688Z,44.05
2022-11-12T03:19:01.331Z,45.15
2022-11-12T03:23:21.377Z,39.20
2022-11-12T03:27:41.837Z,40.22
2022-11-12T03:32:02.010Z,41.15
2022-11-12T03:36:22.365Z,44.67
2022-11-12T03:40:42.380Z,43.92
2022-11-12T03:45:03.657Z,48.83
2022-11-12T03:49:24.097Z,45.05
2022-11-12T03:53:44.686Z,40.65
2022-11-12T03:58:04.963Z,39.00
2022-11-12T04:02:26.698Z,40.15
2022-11-12T04:07:05.629Z,41.25
2022-11-12T04:11:26.049Z,35.90
2022-11-12T04:16:06.939Z,45.25
2022-11-12T04:20:46.445Z,39.05
2022-11-12T04:25:25.197Z,40.65
2022-11-12T04:30:05.269Z,38.83
2022-11-12T04:34:31.418Z,36.50
2022-11-12T04:38:52.042Z,41.50
2022-11-12T04:43:34.210Z,36.65
2022-11-12T04:47:54.701Z,40.17
2022-11-12T04:52:15.528Z,40.20
2022-11-12T04:56:36.287Z,38.85
2022-11-12T05:00:56.280Z,36.30
2022-11-12T05:05:17.059Z,36.47
2022-11-12T05:09:38.399Z,34.13
2022-11-12T05:13:59.024Z,40.22
2022-11-12T05:18:19.157Z,39.20
2022-11-12T05:22:47.743Z,40.17
2022-11-12T05:27:20.365Z,39.35
2022-11-12T05:31:40.773Z,41.88
2022-11-12T05:36:01.186Z,38.03
2022-11-12T05:40:21.342Z,43.63
2022-11-12T05:44:41.766Z,38.15
2022-11-12T05:49:02.506Z,42.53
2022-11-12T05:53:23.392Z,47.25
2022-11-12T05:57:43.826Z,45.28
2022-11-12T06:02:04.333Z,55.47
2022-11-12T06:06:25.407Z,46.45
2022-11-12T06:10:53.181Z,44.60
2022-11-12T06:15:13.623Z,53.58
2022-11-12T06:19:33.909Z,49.00
2022-11-12T06:23:59.797Z,55.95
2022-11-12T06:28:20.265Z,56.00
2022-11-12T06:32:41.024Z,57.58
2022-11-12T06:37:00.914Z,55.15
2022-11-12T06:41:21.567Z,50.80
2022-11-12T06:45:41.964Z,56.75
2022-11-12T06:50:02.565Z,47.92
2022-11-12T06:54:22.878Z,43.67
2022-11-12T06:58:43.354Z,49.20
2022-11-12T07:03:08.076Z,59.08
2022-11-12T07:07:29.186Z,64.57
2022-11-12T07:11:49.633Z,56.55
2022-11-12T07:16:11.187Z,60.40
2022-11-12T07:20:31.370Z,62.40
2022-11-12T07:24:52.113Z,71.05
2022-11-12T07:29:14.707Z,72.93
2022-11-12T07:33:38.480Z,77.45
2022-11-12T07:37:59.762Z,73.57
2022-11-12T07:42:20.571Z,80.65
2022-11-12T07:46:40.670Z,83.53
2022-11-12T07:51:08.099Z,80.55
2022-11-12T07:55:28.087Z,74.90
2022-11-12T07:59:48.656Z,84.07
2022-11-12T08:04:10.727Z,69.85
2022-11-12T08:08:31.136Z,72.57
2022-11-12T08:12:51.264Z,91.32
2022-11-12T08:17:11.786Z,79.97
2022-11-12T08:21:31.897Z,65.38
2022-11-12T08:25:52.214Z,79.20
2022-11-12T08:30:12.906Z,107.13
2022-11-12T08:34:33.775Z,78.35
2022-11-12T08:38:54.383Z,74.45
2022-11-12T08:43:15.053Z,80.93
2022-11-12T08:47:35.102Z,78.97
2022-11-12T08:51:55.840Z,74.15
2022-11-12T08:56:15.882Z,72.20
2022-11-12T09:00:39.933Z,68.45
2022-11-12T09:05:00.172Z,68.60
2022-11-12T09:09:20.913Z,68.18
2022-11-12T09:13:41.448Z,73.15
2022-11-12T09:18:06.433Z,80.13
2022-11-12T09:22:26.610Z,73.68
2022-11-12T09:26:48.360Z,84.60
2022-11-12T09:31:08.847Z,73.40
2022-11-12T09:35:30.117Z,77.35
2022-11-12T09:39:50.098Z,74.95
2022-11-12T09:44:14.231Z,72.28
2022-11-12T09:48:43.198Z,77.28
2022-11-12T09:53:26.038Z,80.25
2022-11-12T09:57:46.425Z,79.03
2022-11-12T10:02:23.481Z,85.95
2022-11-12T10:06:58.023Z,71.00
2022-11-12T10:11:58.778Z,85.25
2022-11-12T10:16:49.213Z,82.13
2022-11-12T10:21:30.412Z,67.55
2022-11-12T10:25:56.060Z,77.65
2022-11-12T10:30:21.945Z,80.35
2022-11-12T10:34:42.282Z,76.05
2022-11-12T10:39:03.251Z,76.50
2022-11-12T10:43:24.898Z,97.38
2022-11-12T10:47:46.598Z,71.10
2022-11-12T10:52:21.148Z,80.28
2022-11-12T10:56:40.999Z,79.07
2022-11-12T11:01:13.457Z,68.88
2022-11-12T11:05:35.686Z,68.88
2022-11-12T11:09:59.136Z,75.68
2022-11-12T11:14:22.101Z,62.45
2022-11-12T11:18:48.756Z,79.85
2022-11-12T11:23:22.465Z,70.88
2022-11-12T11:28:05.869Z,122.20
2022-11-12T11:33:03.086Z,87.72
2022-11-12T11:37:29.562Z,104.13
2022-11-12T11:42:20.153Z,66.03
2022-11-12T11:46:58.195Z,60.55
2022-11-12T11:51:32.160Z,69.55
2022-11-12T11:56:37.651Z,61.80
2022-11-12T12:01:19.219Z,60.90
2022-11-12T12:06:08.978Z,71.90
2022-11-12T12:11:12.005Z,69.97
2022-11-12T12:16:20.627Z,67.82
2022-11-12T12:20:58.631Z,63.47
2022-11-12T12:25:26.935Z,68.10
2022-11-12T12:29:58.486Z,65.85
2022-11-12T12:34:26.474Z,68.82
2022-11-12T12:39:12.388Z,71.38
2022-11-12T12:43:37.073Z,90.13
2022-11-12T12:47:59.663Z,55.10
2022-11-12T12:52:19.973Z,68.63
2022-11-12T12:56:46.435Z,52.55
2022-11-12T13:01:21.894Z,57.28
2022-11-12T13:05:42.873Z,51.78
2022-11-12T13:10:36.872Z,53.70
2022-11-12T13:15:10.913Z,56.13
2022-11-12T13:19:35.639Z,67.05
2022-11-12T13:24:07.883Z,45.85
2022-11-12T13:28:28.668Z,79.28
2022-11-12T13:32:52.310Z,51.72
2022-11-12T13:37:21.209Z,46.00
2022-11-12T13:46:32.657Z,58.03
2022-11-12T13:50:58.331Z,68.93
2022-11-12T13:55:21.350Z,43.33
2022-11-12T13:59:41.865Z,37.80
2022-11-12T14:04:02.097Z,41.63
2022-11-12T14:08:29.589Z,57.60
2022-11-12T14:13:24.785Z,40.63
2022-11-12T14:18:03.744Z,35.53
2022-11-12T14:22:24.827Z,43.63
2022-11-12T14:26:45.456Z,40.40
2022-11-12T14:31:14.295Z,42.08
2022-11-12T14:35:35.944Z,47.13
2022-11-12T14:39:56.485Z,57.33
2022-11-12T14:44:32.862Z,45.42
2022-11-12T14:49:04.435Z,44.33
2022-11-12T14:53:33.648Z,41.67
2022-11-12T14:57:58.779Z,44.30
2022-11-12T15:02:37.314Z,39.35
2022-11-12T15:07:03.282Z,50.90
2022-11-12T15:11:30.386Z,41.20
2022-11-12T15:15:54.997Z,42.30
2022-11-12T15:20:17.891Z,65.88
2022-11-12T15:24:39.154Z,44.97
2022-11-12T15:29:02.088Z,139.30
2022-11-12T15:33:22.906Z,66.68
2022-11-12T15:37:43.728Z,104.90
2022-11-12T15:42:14.487Z,98.05
2022-11-12T15:46:35.188Z,60.22
2022-11-12T15:50:55.787Z,102.18
2022-11-12T15:55:18.063Z,82.32
2022-11-12T15:59:38.552Z,144.25
2022-11-12T16:03:59.242Z,118.60
2022-11-12T16:08:19.923Z,59.92
2022-11-12T16:12:41.376Z,57.85
2022-11-12T16:17:01.843Z,56.58
2022-11-12T16:21:22.341Z,53.75
2022-11-12T16:25:43.970Z,68.93
2022-11-12T16:30:07.292Z,51.55
2022-11-12T16:34:29.382Z,58.40
2022-11-12T16:38:49.868Z,55.15
2022-11-12T16:43:10.396Z,50.28
2022-11-12T16:47:31.215Z,54.25
2022-11-12T16:51:51.578Z,54.03
2022-11-12T16:56:21.605Z,56.35
2022-11-12T17:00:46.040Z,52.20
2022-11-12T17:05:12.149Z,52.65
2022-11-12T17:09:32.505Z,50.40
2022-11-12T17:13:53.053Z,53.65
2022-11-12T17:18:13.243Z,71.22
2022-11-12T17:22:33.875Z,83.57
2022-11-12T17:26:54.541Z,86.65
2022-11-12T17:31:22.255Z,60.65
2022-11-12T17:35:42.801Z,47.05
2022-11-12T17:40:03.906Z,49.55
2022-11-12T17:44:24.291Z,53.78
2022-11-12T17:48:45.129Z,54.55
2022-11-12T17:53:05.052Z,50.28
2022-11-12T17:57:25.549Z,47.75
2022-11-12T18:01:45.990Z,58.22
2022-11-12T18:06:09.722Z,65.47
2022-11-12T18:10:30.208Z,56.85
2022-11-12T18:14:50.799Z,59.03
2022-11-12T18:19:12.968Z,105.63
2022-11-12T18:23:37.039Z,99.72
2022-11-12T18:27:57.575Z,98.07
2022-11-12T18:32:18.169Z,74.22
2022-11-12T18:36:38.227Z,62.58
2022-11-12T18:41:06.805Z,67.03
2022-11-12T18:45:26.702Z,71.00
2022-11-12T18:49:47.197Z,74.05
2022-11-12T18:54:07.526Z,88.13
2022-11-12T18:58:33.791Z,80.95
2022-11-12T19:02:54.995Z,87.45
2022-11-12T19:07:15.574Z,75.90
2022-11-12T19:11:36.250Z,199.63
2022-11-12T19:16:06.716Z,75.32
2022-11-12T19:20:27.822Z,73.60
2022-11-12T19:24:48.388Z,75.30
2022-11-12T19:29:08.521Z,82.75
2022-11-12T19:33:29.311Z,80.72
2022-11-12T19:37:49.850Z,81.55
2022-11-12T19:42:10.426Z,120.30
2022-11-12T19:46:32.489Z,116.32
2022-11-12T19:50:53.387Z,102.07
2022-11-12T19:55:13.644Z,86.60
2022-11-12T19:59:34.316Z,97.25
2022-11-12T20:03:54.565Z,97.20
2022-11-12T20:08:15.006Z,95.75
2022-11-12T20:12:36.556Z,98.20
2022-11-12T20:16:56.906Z,100.10
2022-11-12T20:21:17.274Z,106.38
2022-11-12T20:25:38.061Z,99.82
2022-11-12T20:29:58.181Z,113.20
2022-11-12T20:34:18.734Z,115.88
2022-11-12T20:38:40.726Z,106.97
2022-11-12T20:43:01.030Z,113.50
2022-11-12T20:47:21.270Z,108.20
2022-11-12T20:51:41.867Z,124.80
2022-11-12T20:56:13.831Z,103.90
2022-11-12T21:00:35.297Z,112.88
2022-11-12T21:04:55.218Z,115.90
2022-11-12T21:09:16.406Z,128.88
2022-11-12T21:13:38.217Z,127.55
2022-11-12T21:17:58.830Z,131.10
2022-11-12T21:22:18.927Z,128.43
2022-11-12T21:26:40.016Z,139.45
2022-11-12T21:31:08.368Z,129.50
2022-11-12T21:35:28.544Z,131.07
2022-11-12T21:39:49.372Z,141.20
2022-11-12T21:44:10.153Z,259.65
2022-11-12T21:48:30.531Z,184.35
2022-11-12T21:52:51.478Z,153.70
2022-11-12T21:57:16.094Z,163.73
2022-11-12T22:01:40.576Z,153.00
2022-11-12T22:06:01.490Z,197.77
2022-11-12T22:10:22.200Z,197.02
2022-11-12T22:14:42.317Z,166.98
2022-11-12T22:19:02.990Z,214.75
2022-11-12T22:23:23.018Z,208.13
2022-11-12T22:27:43.480Z,198.48
2022-11-12T22:32:03.657Z,166.82
2022-11-12T22:36:27.215Z,290.35
2022-11-12T22:40:47.509Z,203.90
2022-11-12T22:45:09.054Z,209.40
2022-11-12T22:49:29.497Z,294.52
2022-11-12T22:53:58.225Z,293.45
2022-11-12T22:58:18.159Z,263.95
2022-11-12T23:02:43.389Z,252.18
2022-11-12T23:07:06.470Z,170.45
2022-11-12T23:11:27.666Z,176.45
2022-11-12T23:15:48.185Z,188.35
2022-11-12T23:20:09.554Z,207.30
2022-11-12T23:24:29.682Z,230.93
2022-11-12T23:28:51.455Z,201.82
2022-11-12T23:33:12.005Z,169.48
2022-11-12T23:37:32.571Z,173.07
2022-11-12T23:41:52.673Z,206.27
2022-11-12T23:46:13.210Z,177.95
2022-11-12T23:50:33.330Z,177.20
2022-11-12T23:54:53.836Z,199.02
2022-11-12T23:59:13.843Z,198.10
